• Join FlightAware (Why Join?)
  • Login
  • US Flag 
08:41PM EDT


 

Airport Tracker/Info


-or-


 

Live Flight TrackerFlight Track Log ✈ UAL4257 ✈ 23-Apr-2013 ✈ MMMY / MTY - KIAH

Flight Track Log - Related Links

Times and Time Zones

All times are in EDT time to prevent confusion due to time zone crossing. See the UAL4257 flight status page for this flight to view local times or setup timezone preferences in your user account.

Time Position Orientation Groundspeed Altitude Reporting Facility
EDT Latitude Longitude Course Direction KTS MPH feet Rate Location/Type
12:22PM 25.9372 -99.8253 44° Northeast 286 329 9,900  Level Houston Center
12:23PM 26.2739 -99.5732 44° Northeast  Level Estimated
12:23PM 26.0139 -99.7394 45° Northeast 310 357 11,700  Level Houston Center
12:24PM 26.3473 -99.4936 44° Northeast  Level Estimated
12:24PM 26.0850 -99.6664 43° Northeast 330 380 12,800  Level Houston Center
12:25PM 26.4207 -99.4139 44° Northeast  Level Estimated
12:25PM 26.1567 -99.5892 44° Northeast 345 397 15,000  Level Houston Center
12:26PM 26.4940 -99.3340 44° Northeast  Level Estimated
12:26PM 26.2228 -99.5136 46° Northeast 346 398 16,900  Level Houston Center
12:27PM 26.5672 -99.2541 44° Northeast  Level Estimated
12:27PM 26.2900 -99.4414 44° Northeast 341 392 18,700  Level Houston Center
12:28PM 26.3739 -99.3550 43° Northeast 341 392 20,700 1,500 Climbing Houston Center
12:29PM 26.4458 -99.2778 44° Northeast 348 400 21,800 1,080 Climbing Houston Center
12:30PM 26.5222 -99.1947 44° Northeast 364 419 23,000 1,200 Climbing Houston Center
12:31PM 26.5972 -99.1061 47° Northeast 384 442 24,400 1,380 Climbing Houston Center
12:33PM 26.6736 -99.0175 46° Northeast 394 453 25,900 1,440 Climbing Houston Center
12:34PM 26.7572 -98.9400 40° Northeast 392 451 27,400 1,560 Climbing Houston Center
12:35PM 26.8561 -98.8453 41° Northeast 392 451 29,200 1,440 Climbing Houston Center
12:36PM 26.9375 -98.7672 41° Northeast 389 448 30,500 1,140 Climbing Houston Center
12:37PM 27.0208 -98.6867 41° Northeast 394 453 31,600 960 Climbing Houston Center
12:38PM 27.1067 -98.6036 41° Northeast 405 466 32,600 660 Climbing Houston Center
12:39PM 27.1944 -98.5178 41° Northeast 417 480 33,000 180 Climbing Houston Center
12:40PM 27.3103 -98.4053 41° Northeast 456 525 33,000  Level Houston Center
12:41PM 27.4119 -98.3056 41° Northeast 481 554 33,000  Level Houston Center
12:42PM 27.5167 -98.2033 41° Northeast 496 571 33,000  Level Houston Center
12:43PM 27.6228 -98.0989 41° Northeast 505 581 33,000  Level Houston Center
12:44PM 27.7297 -97.9956 41° Northeast 508 585 33,000 -60 Level Houston Center
12:45PM 27.8561 -97.8700 41° Northeast 506 582 32,900  Descending Houston Center
12:46PM 27.9606 -97.7664 41° Northeast 502 578 33,000  Climbing Houston Center
12:47PM 28.0631 -97.6672 40° Northeast 504 580 33,000  Level Houston Center
12:48PM 28.1675 -97.5639 41° Northeast 500 575 33,000  Level Houston Center
12:49PM 28.2928 -97.4381 41° Northeast 501 577 33,000  Level Houston Center
12:50PM 28.3983 -97.3336 41° Northeast 503 579 33,000  Level Houston Center
12:51PM 28.5031 -97.2278 42° Northeast 505 581 33,000 -600 Level Houston Center
12:52PM 28.6044 -97.1283 41° Northeast 485 558 31,800 -1,140 Descending Houston Center
12:53PM 28.7200 -97.0964 14° North 431 496 30,700 -1,080 Descending Houston Center
12:54PM 28.8386 -97.0844 North 427 491 29,600 -1,200 Descending Houston Center
12:55PM 28.9831 -97.0711 North 432 497 28,300 -1,200 Descending Houston Center
12:56PM 29.1036 -97.0603 North 432 497 27,200 -1,500 Descending Houston Center
12:57PM 29.2078 -96.9917 30° Northeast 432 497 25,300 -1,680 Descending Houston Center
12:58PM 29.2653 -96.8686 62° Northeast 446 513 23,800 -1,620 Descending Houston Center
12:59PM 29.3142 -96.7492 65° Northeast 429 494 22,000 -2,520 Descending Houston Center
01:00PM 29.3708 -96.6078 65° Northeast 414 476 18,700 -2,760 Descending Houston Center
01:01PM 29.4167 -96.4928 65° Northeast 403 464 16,300 -2,400 Descending Houston Center
01:03PM 29.4594 -96.3861 65° Northeast 375 432 13,800 -2,340 Descending Houston Center
01:03PM 29.4886 -96.3122 66° East 352 405 12,500 -1,920 Descending Houston Center
01:04PM 29.4989 -96.2850 67° East 353 406 11,900 -1,980 Descending Houston Center
01:04PM 29.5267 -96.2144 66° East 333 383 10,500 -1,680 Descending Houston Center
01:05PM 29.5369 -96.1878 66° East 340 391 10,200 -540 Descending Houston Center
01:05PM 29.5689 -96.1208 61° Northeast 334 384 10,000 -600 Descending Houston Center
01:06PM 29.5906 -96.0792 59° Northeast 324 373 9,600 -900 Descending Houston Center
01:06PM 29.6158 -96.0314 59° Northeast 300 345 9,100 -600 Descending Houston Center
01:07PM 29.6289 -96.0017 63° Northeast 302 348 9,000 -360 Descending Houston Center
01:07PM 29.6719 -95.9531 44° Northeast 278 320 8,700 -600 Descending Houston Center
01:08PM 29.6886 -95.9447 23° Northeast 287 330 8,400 -1,380 Descending Houston Center
01:08PM 29.7422 -95.9186 23° Northeast 282 325 7,300 -1,260 Descending Houston Center
01:09PM 29.7561 -95.9086 32° Northeast 273 314 7,100 -300 Descending Houston Center
01:09PM 29.8092 -95.8650 35° Northeast 293 337 7,000 -300 Descending Houston Center
01:10PM 29.8231 -95.8539 35° Northeast 290 334 6,800 -1,380 Descending Houston Center
01:10PM 29.8733 -95.8072 39° Northeast 287 330 5,600 -1,380 Descending Houston Center
01:11PM 29.8800 -95.7939 60° Northeast 280 322 5,400 -1,200 Descending Houston Center
01:11PM 29.9042 -95.7311 66° East 261 300 4,400 -1,560 Descending Houston Center
01:12PM 29.9172 -95.6986 65° Northeast 271 312 3,800 -1,140 Descending Houston Center
01:12PM 29.9369 -95.6503 65° Northeast 267 307 3,300 -780 Descending Houston Center
01:13PM 29.9497 -95.6236 61° Northeast 265 305 3,000 -240 Descending Houston Center
01:13PM 29.9672 -95.5889 60° Northeast 229 264 3,100  Climbing Houston Center
01:14PM 29.9814 -95.5592 61° Northeast 247 284 3,000 -300 Descending Houston Center
01:14PM 29.9922 -95.5161 74° East 213 245 2,800 -540 Descending Houston Center
01:15PM 29.9928 -95.4944 88° East 238 274 2,500 -1,020 Descending Houston Center
01:15PM 29.9936 -95.4628 88° East 175 201 1,900 -1,020 Descending Houston Center
01:16PM 29.9933 -95.4375 91° East 198 228 1,500 -840 Descending Houston Center
01:16PM 29.9931 -95.4097 91° East 138 159 1,100 -720 Descending Houston Center
01:17PM 29.9933 -95.3892 89° East 173 199 800 -720 Descending Houston Center
01:17PM 29.9931 -95.3664 91° East 139 160 400 -300 Descending Houston Center
01:18PM 29.9944 -95.3325 87° East 165 190 500 120 Climbing Houston Center
01:20PM 29.9833 -95.3333 270° West  Level FlightAware Approximate